Terminal Aerodrome Forecast
Issued by NWS Greer, SC

Home | Current Version | Previous Version | Text Only | Print | Product List | Glossary On
Versions: 1 2 3 4 5 6 7 8 9 10 11 12 13
000
FTUS42 KGSP 241100
TAFAVL
TAF
KAVL 241120Z 2412/2512 14003KT P6SM SKC
     FM241400 14006KT P6SM FEW250
     FM242100 17010KT P6SM FEW250
     FM250100 17005KT P6SM FEW250
     FM250600 17004KT P6SM BKN050
     FM251000 18004KT P6SM OVC027=

USA.gov is the U.S. government's official web portal to all federal, state and local government web resources and services.